createdAt,value
2024-03-30T00:00:49.588Z,56.30
2024-03-30T00:01:49.022Z,56.31
2024-03-30T00:02:49.043Z,56.32
2024-03-30T00:03:48.957Z,56.34
2024-03-30T00:04:48.946Z,56.34
2024-03-30T00:05:49.612Z,56.34
2024-03-30T00:06:48.937Z,56.35
2024-03-30T00:07:48.998Z,56.35
2024-03-30T00:08:49.027Z,56.38
2024-03-30T00:09:49.015Z,56.36
2024-03-30T00:10:48.899Z,56.38
2024-03-30T00:11:49.284Z,56.39
2024-03-30T00:12:48.925Z,56.41
2024-03-30T00:13:48.842Z,56.41
2024-03-30T00:14:48.938Z,56.42
2024-03-30T00:15:48.824Z,56.44
2024-03-30T00:16:48.882Z,56.46
2024-03-30T00:17:49.306Z,56.45
2024-03-30T00:18:48.817Z,56.44
2024-03-30T00:19:48.878Z,56.44
2024-03-30T00:20:48.882Z,56.44
2024-03-30T00:21:48.887Z,56.44
2024-03-30T00:22:48.821Z,56.44
2024-03-30T00:23:49.151Z,56.45
2024-03-30T00:24:48.836Z,56.46
2024-03-30T00:25:48.672Z,56.46
2024-03-30T00:26:48.756Z,56.47
2024-03-30T00:27:48.687Z,56.49
2024-03-30T00:28:49.196Z,56.48
2024-03-30T00:29:48.640Z,56.49
2024-03-30T00:30:48.631Z,56.49
2024-03-30T00:31:48.585Z,56.50
2024-03-30T00:32:48.975Z,56.51
2024-03-30T00:33:48.574Z,56.50
2024-03-30T00:34:48.968Z,56.52
2024-03-30T00:35:48.756Z,56.50
2024-03-30T00:36:48.523Z,56.53
2024-03-30T00:37:48.564Z,56.53
2024-03-30T00:38:48.698Z,56.53
2024-03-30T00:39:48.497Z,56.54
2024-03-30T00:40:49.092Z,56.55
2024-03-30T00:41:48.515Z,56.56
2024-03-30T00:43:48.473Z,56.61
2024-03-30T00:44:48.473Z,56.59
2024-03-30T00:45:48.562Z,56.60
2024-03-30T00:46:48.862Z,56.62
2024-03-30T00:47:48.441Z,56.62
2024-03-30T00:48:48.499Z,56.63
2024-03-30T00:49:48.372Z,56.63
2024-03-30T00:50:48.400Z,56.64
2024-03-30T00:51:48.800Z,56.65
2024-03-30T00:52:48.445Z,56.67
2024-03-30T00:53:48.362Z,56.67
2024-03-30T00:54:48.376Z,56.68
2024-03-30T00:55:48.315Z,56.69
2024-03-30T00:56:48.761Z,56.68
2024-03-30T00:57:48.301Z,56.70
2024-03-30T00:58:48.246Z,56.69
2024-03-30T00:59:48.257Z,56.70
2024-03-30T01:00:48.265Z,56.71
2024-03-30T01:01:48.245Z,56.72
2024-03-30T01:02:48.780Z,56.71
2024-03-30T01:03:48.216Z,56.70
2024-03-30T01:04:48.205Z,56.72
2024-03-30T01:05:48.246Z,56.73
2024-03-30T01:06:48.280Z,56.74
2024-03-30T01:07:48.597Z,56.74
2024-03-30T01:08:48.135Z,56.73
2024-03-30T01:09:48.116Z,56.74
2024-03-30T01:10:48.081Z,56.74
2024-03-30T01:11:48.315Z,56.74
2024-03-30T01:12:48.472Z,56.76
2024-03-30T01:13:48.226Z,56.76
2024-03-30T01:14:48.152Z,56.76
2024-03-30T01:15:48.134Z,56.77
2024-03-30T01:16:48.150Z,56.77
2024-03-30T01:17:48.447Z,56.78
2024-03-30T01:18:48.254Z,56.78
2024-03-30T01:19:48.043Z,56.78
2024-03-30T01:20:48.154Z,56.79
2024-03-30T01:21:48.006Z,56.79
2024-03-30T01:22:47.995Z,56.79
2024-03-30T01:23:48.417Z,56.80
2024-03-30T01:24:48.064Z,56.81
2024-03-30T01:25:47.964Z,56.80
2024-03-30T01:26:47.932Z,56.79
2024-03-30T01:27:47.958Z,56.80
2024-03-30T01:28:48.419Z,56.78
2024-03-30T01:29:48.017Z,56.79
2024-03-30T01:30:47.860Z,56.79
2024-03-30T01:31:47.860Z,56.79
2024-03-30T01:32:47.951Z,56.78
2024-03-30T01:33:48.214Z,56.80
2024-03-30T01:34:47.808Z,56.79
2024-03-30T01:35:47.835Z,56.80
2024-03-30T01:36:47.834Z,56.79
2024-03-30T01:37:47.810Z,56.79
2024-03-30T01:38:48.143Z,56.79
2024-03-30T01:39:47.954Z,56.78
2024-03-30T01:40:47.727Z,56.77
2024-03-30T01:41:47.725Z,56.78
2024-03-30T01:42:47.757Z,56.78
2024-03-30T01:43:48.131Z,56.78
2024-03-30T01:44:47.753Z,56.79
2024-03-30T01:45:47.876Z,56.79
2024-03-30T01:46:47.812Z,56.79
2024-03-30T01:47:47.670Z,56.79
2024-03-30T01:48:48.199Z,56.78
2024-03-30T01:49:47.610Z,56.78
2024-03-30T01:50:47.791Z,56.78
2024-03-30T01:51:47.561Z,56.79
2024-03-30T01:52:49.432Z,56.79
2024-03-30T01:53:47.621Z,56.78
2024-03-30T01:54:47.978Z,56.78
2024-03-30T01:55:47.512Z,56.78
2024-03-30T01:56:47.715Z,56.77
2024-03-30T01:57:47.531Z,56.78
2024-03-30T01:58:47.572Z,56.77
2024-03-30T01:59:47.556Z,56.76
2024-03-30T02:00:47.874Z,56.75
2024-03-30T02:01:47.475Z,56.76
2024-03-30T02:02:47.637Z,56.76
2024-03-30T02:03:47.443Z,56.76
2024-03-30T02:04:47.427Z,56.78
2024-03-30T02:05:47.445Z,56.78
2024-03-30T02:06:47.817Z,56.78
2024-03-30T02:07:47.357Z,56.79
2024-03-30T02:08:47.468Z,56.79
2024-03-30T02:09:47.406Z,56.77
2024-03-30T02:10:47.361Z,56.76
2024-03-30T02:11:48.031Z,56.76
2024-03-30T02:12:47.295Z,56.76
2024-03-30T02:13:47.330Z,56.78
2024-03-30T02:14:47.447Z,56.79
2024-03-30T02:15:47.333Z,56.79
2024-03-30T02:16:47.713Z,56.79
2024-03-30T02:17:47.345Z,56.79
2024-03-30T02:18:47.262Z,56.80
2024-03-30T02:19:47.302Z,56.80
2024-03-30T02:20:47.211Z,56.82
2024-03-30T02:21:47.284Z,56.80
2024-03-30T02:22:47.612Z,56.83
2024-03-30T02:23:47.200Z,56.82
2024-03-30T02:24:47.200Z,56.80
2024-03-30T02:25:47.166Z,56.80
2024-03-30T02:26:47.236Z,56.82
2024-03-30T02:27:47.578Z,56.81
2024-03-30T02:28:47.185Z,56.81
2024-03-30T02:29:47.089Z,56.82
2024-03-30T02:30:47.098Z,56.82
2024-03-30T02:31:47.088Z,56.82
2024-03-30T02:32:47.072Z,56.81
2024-03-30T02:33:47.473Z,56.82
2024-03-30T02:34:47.227Z,56.81
2024-03-30T02:35:47.035Z,56.80
2024-03-30T02:36:47.037Z,56.81
2024-03-30T02:37:47.106Z,56.81
2024-03-30T02:38:47.470Z,56.82
2024-03-30T02:39:47.012Z,56.83
2024-03-30T02:40:47.011Z,56.83
2024-03-30T02:41:46.998Z,56.83
2024-03-30T02:42:46.977Z,56.82
2024-03-30T02:43:46.899Z,56.83
2024-03-30T02:44:47.365Z,56.81
2024-03-30T02:45:47.016Z,56.82
2024-03-30T02:46:46.981Z,56.82
2024-03-30T02:47:46.888Z,56.81
2024-03-30T02:48:46.846Z,56.82
2024-03-30T02:49:47.289Z,56.81
2024-03-30T02:50:46.935Z,56.84
2024-03-30T02:51:47.050Z,56.84
2024-03-30T02:52:46.901Z,56.84
2024-03-30T02:53:46.814Z,56.84
2024-03-30T02:54:47.230Z,56.82
2024-03-30T02:55:46.812Z,56.84
2024-03-30T02:56:46.737Z,56.84
2024-03-30T02:57:46.750Z,56.85
2024-03-30T02:58:46.719Z,56.84
2024-03-30T02:59:46.808Z,56.85
2024-03-30T03:00:47.121Z,56.85
2024-03-30T03:01:46.822Z,56.85
2024-03-30T03:02:46.673Z,56.84
2024-03-30T03:03:46.758Z,56.83
2024-03-30T03:04:46.620Z,56.83
2024-03-30T03:05:46.674Z,56.84
2024-03-30T03:06:47.114Z,56.85
2024-03-30T03:07:46.640Z,56.84
2024-03-30T03:08:46.660Z,56.84
2024-03-30T03:09:46.747Z,56.85
2024-03-30T03:10:46.608Z,56.86
2024-03-30T03:11:46.644Z,56.86
2024-03-30T03:12:47.018Z,56.85
2024-03-30T03:13:46.529Z,56.86
2024-03-30T03:14:46.536Z,56.85
2024-03-30T03:15:46.562Z,56.87
2024-03-30T03:16:46.577Z,56.87
2024-03-30T03:17:47.020Z,56.86
2024-03-30T03:18:46.490Z,56.86
2024-03-30T03:19:46.468Z,56.85
2024-03-30T03:20:46.520Z,56.84
2024-03-30T03:21:46.604Z,56.85
2024-03-30T03:22:46.438Z,56.85
2024-03-30T03:23:46.799Z,56.83
2024-03-30T03:24:46.431Z,56.83
2024-03-30T03:25:46.430Z,56.83
2024-03-30T03:26:46.479Z,56.83
2024-03-30T03:27:46.332Z,56.82
2024-03-30T03:28:46.402Z,56.81
2024-03-30T03:29:46.748Z,56.82
2024-03-30T03:30:46.353Z,56.83
2024-03-30T03:31:46.331Z,56.81
2024-03-30T03:32:46.458Z,56.83
2024-03-30T03:33:46.278Z,56.84
2024-03-30T03:34:46.837Z,56.86
2024-03-30T03:35:46.267Z,56.84
2024-03-30T03:36:46.226Z,56.85
2024-03-30T03:37:46.464Z,56.85
2024-03-30T03:38:46.294Z,56.85
2024-03-30T03:39:46.228Z,56.86
2024-03-30T03:40:46.642Z,56.87
2024-03-30T03:41:46.182Z,56.86
2024-03-30T03:42:46.353Z,56.86
2024-03-30T03:43:46.245Z,56.85
2024-03-30T03:44:46.189Z,56.86
2024-03-30T03:45:46.709Z,56.87
2024-03-30T03:46:46.126Z,56.86
2024-03-30T03:47:46.123Z,56.86
2024-03-30T03:48:46.219Z,56.87
2024-03-30T03:49:46.113Z,56.86
2024-03-30T03:50:47.387Z,56.85
2024-03-30T03:51:46.053Z,56.84
2024-03-30T03:52:46.014Z,56.87
2024-03-30T03:53:46.178Z,56.87
2024-03-30T03:54:46.022Z,56.85
2024-03-30T03:55:46.415Z,56.83
2024-03-30T03:56:46.032Z,56.85
2024-03-30T03:57:45.982Z,56.85
2024-03-30T03:58:45.934Z,56.83
2024-03-30T03:59:45.980Z,56.84
2024-03-30T04:00:45.947Z,56.84
2024-03-30T04:01:46.369Z,56.86
2024-03-30T04:02:46.031Z,56.85
2024-03-30T04:03:45.899Z,56.86
2024-03-30T04:04:45.882Z,56.85
2024-03-30T04:05:45.885Z,56.85
2024-03-30T04:06:45.950Z,56.86
2024-03-30T04:07:46.513Z,56.85
2024-03-30T04:08:46.033Z,56.85
2024-03-30T04:09:45.867Z,56.85
2024-03-30T04:10:46.053Z,56.84
2024-03-30T04:11:45.791Z,56.82
2024-03-30T04:12:46.182Z,56.84
2024-03-30T04:13:45.955Z,56.83
2024-03-30T04:14:45.749Z,56.83
2024-03-30T04:15:45.909Z,56.82
2024-03-30T04:16:45.750Z,56.84
2024-03-30T04:17:45.766Z,56.85
2024-03-30T04:18:46.219Z,56.85
2024-03-30T04:19:45.796Z,56.83
2024-03-30T04:20:45.732Z,56.85
2024-03-30T04:21:45.681Z,56.85
2024-03-30T04:22:45.661Z,56.85
2024-03-30T04:23:46.305Z,56.85
2024-03-30T04:24:45.647Z,56.83
2024-03-30T04:25:46.385Z,56.82
2024-03-30T04:26:45.614Z,56.79
2024-03-30T04:27:45.633Z,56.77
2024-03-30T04:28:45.880Z,56.79
2024-03-30T04:29:45.994Z,56.77
2024-03-30T04:30:45.819Z,56.78
2024-03-30T04:31:45.584Z,56.78
2024-03-30T04:32:45.629Z,56.81
2024-03-30T04:33:45.699Z,56.81
2024-03-30T04:34:45.894Z,56.80
2024-03-30T04:35:45.530Z,56.79
2024-03-30T04:36:45.517Z,56.79
2024-03-30T04:37:45.453Z,56.79
2024-03-30T04:38:45.523Z,56.78
2024-03-30T04:39:45.512Z,56.78
2024-03-30T04:40:45.900Z,56.75
2024-03-30T04:41:46.517Z,56.73
2024-03-30T04:42:45.386Z,56.73
2024-03-30T04:43:45.677Z,56.71
2024-03-30T04:44:45.375Z,56.68
2024-03-30T04:45:45.560Z,56.67
2024-03-30T04:46:45.795Z,56.67
2024-03-30T04:47:45.327Z,56.65
2024-03-30T04:48:45.411Z,56.64
2024-03-30T04:49:45.454Z,56.62
2024-03-30T04:50:45.303Z,56.61
2024-03-30T04:51:45.704Z,56.62
2024-03-30T04:52:45.363Z,56.59
2024-03-30T04:53:45.305Z,56.58
2024-03-30T04:54:45.413Z,56.57
2024-03-30T04:55:45.291Z,56.54
2024-03-30T04:56:45.638Z,56.51
2024-03-30T04:57:45.228Z,56.49
2024-03-30T04:58:45.167Z,56.46
2024-03-30T04:59:45.165Z,56.46
2024-03-30T05:00:45.185Z,56.44
2024-03-30T05:01:45.620Z,56.43
2024-03-30T05:02:45.253Z,56.40
2024-03-30T05:03:45.155Z,56.38
2024-03-30T05:04:45.103Z,56.35
2024-03-30T05:05:45.118Z,56.30
2024-03-30T05:06:45.083Z,56.30
2024-03-30T05:07:45.461Z,56.28
2024-03-30T05:08:45.200Z,56.27
2024-03-30T05:09:45.040Z,56.23
2024-03-30T05:10:45.071Z,56.21
2024-03-30T05:11:45.084Z,56.17
2024-03-30T05:12:46.007Z,56.13
2024-03-30T05:13:45.448Z,56.09
2024-03-30T05:14:44.991Z,56.04
2024-03-30T05:15:44.977Z,55.99
2024-03-30T05:16:44.962Z,55.94
2024-03-30T05:17:44.971Z,55.87
2024-03-30T05:18:44.924Z,55.79
2024-03-30T05:19:45.419Z,55.72
2024-03-30T05:20:44.968Z,55.64
2024-03-30T05:21:44.867Z,55.56
2024-03-30T05:22:44.984Z,55.50
2024-03-30T05:23:45.004Z,55.44
2024-03-30T05:24:44.861Z,55.40
2024-03-30T05:26:42.538Z,55.00
2024-03-30T05:27:42.506Z,55.36
2024-03-30T05:28:42.653Z,55.33
2024-03-30T05:29:42.725Z,55.28
2024-03-30T05:30:42.532Z,55.24
2024-03-30T05:31:42.516Z,55.20
2024-03-30T05:32:42.859Z,55.17
2024-03-30T05:33:42.585Z,55.10
2024-03-30T05:34:42.459Z,55.05
2024-03-30T05:35:42.476Z,54.98
2024-03-30T05:36:42.467Z,54.93
2024-03-30T05:37:42.881Z,54.86
2024-03-30T05:38:42.366Z,54.82
2024-03-30T05:39:42.708Z,54.79
2024-03-30T05:40:42.359Z,54.76
2024-03-30T05:41:42.378Z,54.78
2024-03-30T05:42:42.757Z,54.79
2024-03-30T05:43:42.631Z,54.83
2024-03-30T05:44:42.383Z,54.86
2024-03-30T05:45:42.313Z,54.93
2024-03-30T05:46:42.291Z,54.97
2024-03-30T05:47:42.773Z,55.01
2024-03-30T05:48:42.250Z,55.05
2024-03-30T05:49:42.240Z,55.07
2024-03-30T05:50:42.380Z,55.10
2024-03-30T05:51:42.228Z,55.15
2024-03-30T05:52:42.703Z,55.16
2024-03-30T05:53:42.199Z,55.17
2024-03-30T05:54:42.237Z,55.17
2024-03-30T05:55:42.147Z,55.18
2024-03-30T05:56:42.278Z,55.16
2024-03-30T05:57:42.579Z,55.10
2024-03-30T05:58:42.275Z,55.00
2024-03-30T05:59:42.088Z,54.90
2024-03-30T06:00:42.119Z,54.79
2024-03-30T06:01:42.098Z,54.65
2024-03-30T06:02:42.081Z,54.57
2024-03-30T06:03:42.622Z,54.49
2024-03-30T06:04:42.110Z,54.44
2024-03-30T06:05:42.329Z,54.39
2024-03-30T06:06:42.016Z,54.36
2024-03-30T06:07:42.063Z,54.34
2024-03-30T06:08:42.066Z,54.33
2024-03-30T06:09:42.364Z,54.34
2024-03-30T06:10:43.581Z,54.36
2024-03-30T06:11:42.089Z,54.38
2024-03-30T06:12:41.983Z,54.42
2024-03-30T06:13:41.923Z,54.45
2024-03-30T06:14:41.895Z,54.50
2024-03-30T06:15:42.335Z,54.53
2024-03-30T06:16:41.879Z,54.57
2024-03-30T06:17:41.871Z,54.60
2024-03-30T06:18:41.863Z,54.65
2024-03-30T06:19:41.902Z,54.67
2024-03-30T06:20:41.837Z,54.68
2024-03-30T06:21:42.448Z,54.63
2024-03-30T06:22:41.811Z,54.55
2024-03-30T06:23:41.804Z,54.46
2024-03-30T06:24:41.869Z,54.34
2024-03-30T06:25:41.765Z,54.23
2024-03-30T06:26:42.254Z,54.10
2024-03-30T06:27:41.863Z,54.00
2024-03-30T06:28:41.709Z,53.92
2024-03-30T06:29:41.806Z,53.85
2024-03-30T06:30:41.721Z,53.83
2024-03-30T06:31:41.846Z,53.81
2024-03-30T06:32:42.150Z,53.78
2024-03-30T06:33:41.684Z,53.77
2024-03-30T06:34:43.298Z,53.73
2024-03-30T06:35:41.826Z,53.69
2024-03-30T06:36:41.614Z,53.65
2024-03-30T06:37:41.633Z,53.58
2024-03-30T06:38:42.071Z,53.52
2024-03-30T06:39:41.668Z,53.46
2024-03-30T06:40:41.677Z,53.39
2024-03-30T06:41:41.558Z,53.32
2024-03-30T06:42:41.547Z,53.27
2024-03-30T06:43:42.054Z,53.22
2024-03-30T06:44:41.687Z,53.18
2024-03-30T06:45:41.536Z,53.19
2024-03-30T06:46:42.506Z,53.19
2024-03-30T06:47:41.513Z,53.17
2024-03-30T06:48:41.463Z,53.16
2024-03-30T06:49:41.915Z,53.14
2024-03-30T06:50:41.461Z,53.06
2024-03-30T06:51:41.521Z,52.99
2024-03-30T06:52:41.431Z,52.95
2024-03-30T06:53:41.669Z,52.89
2024-03-30T06:54:41.368Z,52.81
2024-03-30T06:55:41.990Z,52.78
2024-03-30T06:56:41.380Z,52.73
2024-03-30T06:57:41.317Z,52.72
2024-03-30T06:58:41.376Z,52.68
2024-03-30T06:59:41.375Z,52.65
2024-03-30T07:00:41.729Z,52.63
2024-03-30T07:01:41.337Z,52.60
2024-03-30T07:02:41.358Z,52.59
2024-03-30T07:03:41.421Z,52.58
2024-03-30T07:04:41.276Z,52.59
2024-03-30T07:05:41.319Z,52.61
2024-03-30T07:06:41.709Z,52.61
2024-03-30T07:07:41.275Z,52.64
2024-03-30T07:08:41.294Z,52.68
2024-03-30T07:09:41.319Z,52.72
2024-03-30T07:10:41.424Z,52.74
2024-03-30T07:11:43.412Z,52.73
2024-03-30T07:12:41.132Z,52.72
2024-03-30T07:13:41.118Z,52.69
2024-03-30T07:14:41.146Z,52.65
2024-03-30T07:15:42.424Z,52.63
2024-03-30T07:16:41.154Z,52.56
2024-03-30T07:17:43.584Z,52.45
2024-03-30T07:18:41.120Z,52.28
2024-03-30T07:19:41.035Z,52.11
2024-03-30T07:20:41.057Z,51.93
2024-03-30T07:21:41.132Z,51.78
2024-03-30T07:22:41.090Z,51.65
2024-03-30T07:23:41.438Z,51.51
2024-03-30T07:24:41.071Z,51.35
2024-03-30T07:25:41.148Z,51.21
2024-03-30T07:26:41.107Z,51.07
2024-03-30T07:27:41.022Z,50.92
2024-03-30T07:28:41.412Z,50.80
2024-03-30T07:29:40.920Z,50.69
2024-03-30T07:30:40.911Z,50.57
2024-03-30T07:31:40.918Z,50.46
2024-03-30T07:32:41.037Z,50.38
2024-03-30T07:33:41.331Z,50.31
2024-03-30T07:34:40.960Z,50.27
2024-03-30T07:35:40.923Z,50.25
2024-03-30T07:36:40.912Z,50.28
2024-03-30T07:37:41.040Z,50.30
2024-03-30T07:38:41.417Z,50.33
2024-03-30T07:39:40.812Z,50.37
2024-03-30T07:40:40.794Z,50.43
2024-03-30T07:41:40.852Z,50.47
2024-03-30T07:42:40.861Z,50.51
2024-03-30T07:43:40.769Z,50.53
2024-03-30T07:44:41.357Z,50.53
2024-03-30T07:45:40.716Z,50.53
2024-03-30T07:46:40.753Z,50.52
2024-03-30T07:47:40.738Z,50.55
2024-03-30T07:48:40.835Z,50.57
2024-03-30T07:49:40.670Z,50.58
2024-03-30T07:50:41.134Z,50.62
2024-03-30T07:51:40.690Z,50.68
2024-03-30T07:52:40.603Z,50.70
2024-03-30T07:53:40.701Z,50.69
2024-03-30T07:54:40.744Z,50.70
2024-03-30T07:55:40.996Z,50.70
2024-03-30T07:56:40.710Z,50.69
2024-03-30T07:57:40.604Z,50.67
2024-03-30T07:58:40.667Z,50.65
2024-03-30T07:59:40.603Z,50.63
2024-03-30T08:00:40.992Z,50.59
2024-03-30T08:01:40.545Z,50.56
2024-03-30T08:02:40.527Z,50.54
2024-03-30T08:03:40.526Z,50.49
2024-03-30T08:04:40.629Z,50.44
2024-03-30T08:05:40.874Z,50.42
2024-03-30T08:06:40.583Z,50.38
2024-03-30T08:07:40.484Z,50.36
2024-03-30T08:08:40.493Z,50.33
2024-03-30T08:09:40.455Z,50.30
2024-03-30T08:10:40.520Z,50.28
2024-03-30T08:11:40.805Z,50.26
2024-03-30T08:12:40.367Z,50.24
2024-03-30T08:13:40.429Z,50.27
2024-03-30T08:14:40.346Z,50.27
2024-03-30T08:15:40.333Z,50.27
2024-03-30T08:16:40.337Z,50.24
2024-03-30T08:17:40.746Z,50.22
2024-03-30T08:18:40.346Z,50.20
2024-03-30T08:19:40.274Z,50.16
2024-03-30T08:20:40.401Z,50.15
2024-03-30T08:21:40.282Z,50.14
2024-03-30T08:22:40.649Z,50.12
2024-03-30T08:23:40.248Z,50.11
2024-03-30T08:24:40.194Z,50.07
2024-03-30T08:25:40.385Z,50.01
2024-03-30T08:26:40.182Z,50.07
2024-03-30T08:27:40.700Z,50.06
2024-03-30T08:28:40.168Z,50.03
2024-03-30T08:29:40.139Z,50.12
2024-03-30T08:30:40.195Z,50.12
2024-03-30T08:31:40.238Z,50.10
2024-03-30T08:32:40.089Z,50.16
2024-03-30T08:33:40.497Z,50.27
2024-03-30T08:34:40.721Z,50.26
2024-03-30T08:35:40.109Z,50.18
2024-03-30T08:36:40.134Z,50.07
2024-03-30T08:37:40.045Z,49.98
2024-03-30T08:38:40.514Z,49.88
2024-03-30T08:39:40.042Z,49.82
2024-03-30T08:40:40.033Z,49.73
2024-03-30T08:41:40.007Z,49.65
2024-03-30T08:42:40.022Z,49.57
2024-03-30T08:43:40.026Z,49.51
2024-03-30T08:44:40.398Z,49.46
2024-03-30T08:45:40.227Z,49.40
2024-03-30T08:46:40.113Z,49.39
2024-03-30T08:47:39.949Z,49.40
2024-03-30T08:48:39.908Z,49.40
2024-03-30T08:49:39.969Z,49.39
2024-03-30T08:50:40.368Z,49.36
2024-03-30T08:51:39.907Z,49.33
2024-03-30T08:52:39.867Z,49.24
2024-03-30T08:53:39.977Z,49.15
2024-03-30T08:54:39.805Z,49.08
2024-03-30T08:55:39.857Z,49.02
2024-03-30T08:56:40.198Z,48.97
2024-03-30T08:57:39.863Z,48.91
2024-03-30T08:58:39.832Z,48.85
2024-03-30T08:59:39.850Z,48.78
2024-03-30T09:00:39.760Z,48.73
2024-03-30T09:01:40.171Z,48.66
2024-03-30T09:02:41.379Z,48.59
2024-03-30T09:03:39.849Z,48.55
2024-03-30T09:04:39.821Z,48.49
2024-03-30T09:05:39.709Z,48.42
2024-03-30T09:06:39.739Z,48.38
2024-03-30T09:07:40.173Z,48.34
2024-03-30T09:08:39.683Z,48.30
2024-03-30T09:09:39.760Z,48.28
2024-03-30T09:10:39.707Z,48.25
2024-03-30T09:11:39.691Z,48.22
2024-03-30T09:12:40.049Z,48.26
2024-03-30T09:13:39.831Z,48.37
2024-03-30T09:14:39.581Z,48.48
2024-03-30T09:15:40.266Z,48.59
2024-03-30T09:16:39.587Z,48.71
2024-03-30T09:17:40.014Z,48.79
2024-03-30T09:18:39.609Z,48.84
2024-03-30T09:19:39.565Z,48.91
2024-03-30T09:20:39.655Z,48.95
2024-03-30T09:21:39.525Z,48.89
2024-03-30T09:22:39.870Z,48.81
2024-03-30T09:23:39.447Z,48.68
2024-03-30T09:24:39.529Z,48.61
2024-03-30T09:25:39.500Z,48.62
2024-03-30T09:26:39.431Z,48.64
2024-03-30T09:27:39.853Z,48.58
2024-03-30T09:28:39.448Z,48.49
2024-03-30T09:29:39.436Z,48.38
2024-03-30T09:30:39.419Z,48.26
2024-03-30T09:31:39.399Z,48.11
2024-03-30T09:32:39.890Z,47.91
2024-03-30T09:33:39.431Z,47.75
2024-03-30T09:34:44.587Z,47.58
2024-03-30T09:35:40.796Z,47.38
2024-03-30T09:36:39.280Z,47.23
2024-03-30T09:37:39.363Z,47.09
2024-03-30T09:38:39.796Z,46.93
2024-03-30T09:39:39.320Z,46.88
2024-03-30T09:40:39.294Z,46.86
2024-03-30T09:41:39.228Z,46.87
2024-03-30T09:42:39.184Z,46.91
2024-03-30T09:43:39.591Z,46.99
2024-03-30T09:44:39.218Z,47.05
2024-03-30T09:45:39.276Z,47.13
2024-03-30T09:46:39.258Z,47.15
2024-03-30T09:47:39.183Z,47.10
2024-03-30T09:48:39.160Z,47.01
2024-03-30T09:49:39.602Z,46.93
2024-03-30T09:50:39.239Z,46.81
2024-03-30T09:51:39.175Z,46.70
2024-03-30T09:52:39.286Z,46.57
2024-03-30T09:53:39.127Z,46.47
2024-03-30T09:54:39.088Z,46.38
2024-03-30T09:55:39.508Z,46.34
2024-03-30T09:56:39.080Z,46.37
2024-03-30T09:57:39.009Z,46.33
2024-03-30T09:58:39.029Z,46.34
2024-03-30T09:59:39.087Z,46.31
2024-03-30T10:00:39.419Z,46.24
2024-03-30T10:01:38.963Z,46.18
2024-03-30T10:02:38.963Z,46.13
2024-03-30T10:03:38.949Z,46.03
2024-03-30T10:04:38.949Z,45.88
2024-03-30T10:05:39.318Z,45.72
2024-03-30T10:06:38.926Z,45.54
2024-03-30T10:07:38.896Z,45.41
2024-03-30T10:08:39.010Z,45.28
2024-03-30T10:09:38.904Z,45.18
2024-03-30T10:10:39.388Z,45.07
2024-03-30T10:11:38.886Z,44.99
2024-03-30T10:12:38.887Z,44.95
2024-03-30T10:13:38.919Z,44.89
2024-03-30T10:14:38.897Z,44.87
2024-03-30T10:15:38.842Z,44.83
2024-03-30T10:16:40.245Z,44.78
2024-03-30T10:17:38.756Z,44.74
2024-03-30T10:18:38.757Z,44.71
2024-03-30T10:19:38.733Z,44.66
2024-03-30T10:20:38.731Z,44.63
2024-03-30T10:21:38.792Z,44.57
2024-03-30T10:22:39.090Z,44.53
2024-03-30T10:23:38.726Z,44.44
2024-03-30T10:24:38.691Z,44.39
2024-03-30T10:25:38.701Z,44.33
2024-03-30T10:26:38.640Z,44.25
2024-03-30T10:27:39.084Z,44.21
2024-03-30T10:28:38.620Z,44.16
2024-03-30T10:29:38.699Z,44.14
2024-03-30T10:30:38.601Z,44.10
2024-03-30T10:31:38.544Z,44.07
2024-03-30T10:32:39.001Z,44.03
2024-03-30T10:33:38.576Z,43.97
2024-03-30T10:34:38.538Z,43.95
2024-03-30T10:35:38.569Z,43.92
2024-03-30T10:36:38.543Z,43.87
2024-03-30T10:37:39.051Z,43.84
2024-03-30T10:38:38.524Z,43.80
2024-03-30T10:39:38.495Z,43.75
2024-03-30T10:40:38.513Z,43.69
2024-03-30T10:41:38.499Z,43.63
2024-03-30T10:42:38.433Z,43.56
2024-03-30T10:43:38.957Z,43.48
2024-03-30T10:44:38.511Z,43.43
2024-03-30T10:45:38.467Z,43.40
2024-03-30T10:46:38.416Z,43.34
2024-03-30T10:47:38.456Z,43.28
2024-03-30T10:48:38.979Z,43.20
2024-03-30T10:49:38.358Z,43.12
2024-03-30T10:50:38.329Z,43.03
2024-03-30T10:51:38.377Z,42.93
2024-03-30T10:52:38.463Z,42.84
2024-03-30T10:53:38.679Z,42.75
2024-03-30T10:54:38.364Z,42.68
2024-03-30T10:55:38.354Z,42.56
2024-03-30T10:56:38.282Z,42.51
2024-03-30T10:57:38.312Z,42.49
2024-03-30T10:58:38.925Z,42.45
2024-03-30T10:59:38.818Z,42.40
2024-03-30T11:00:38.256Z,42.31
2024-03-30T11:01:38.220Z,42.23
2024-03-30T11:02:38.901Z,42.15
2024-03-30T11:03:38.237Z,42.03
2024-03-30T11:04:38.161Z,41.94
2024-03-30T11:05:38.568Z,41.86
2024-03-30T11:06:38.112Z,41.78
2024-03-30T11:07:38.179Z,41.72
2024-03-30T11:08:38.137Z,41.63
2024-03-30T11:09:38.116Z,41.54
2024-03-30T11:10:38.538Z,41.47
2024-03-30T11:11:38.215Z,41.37
2024-03-30T11:12:38.066Z,41.25
2024-03-30T11:13:38.198Z,41.13
2024-03-30T11:14:38.053Z,41.03
2024-03-30T11:15:38.465Z,40.92
2024-03-30T11:16:38.123Z,40.83
2024-03-30T11:17:37.993Z,40.73
2024-03-30T11:18:37.967Z,40.63
2024-03-30T11:19:38.061Z,40.53
2024-03-30T11:20:38.471Z,40.41
2024-03-30T11:21:37.974Z,40.31
2024-03-30T11:22:38.601Z,40.20
2024-03-30T11:23:37.943Z,40.07
2024-03-30T11:24:37.885Z,39.98
2024-03-30T11:25:37.886Z,39.92
2024-03-30T11:26:38.265Z,39.85
2024-03-30T11:27:37.914Z,39.78
2024-03-30T11:28:37.901Z,39.72
2024-03-30T11:29:39.227Z,39.64
2024-03-30T11:30:46.353Z,39.56
2024-03-30T11:31:39.731Z,39.52
2024-03-30T11:32:37.835Z,39.47
2024-03-30T11:33:37.826Z,39.44
2024-03-30T11:34:37.795Z,39.41
2024-03-30T11:35:37.790Z,39.36
2024-03-30T11:36:37.788Z,39.34
2024-03-30T11:37:38.198Z,39.35
2024-03-30T11:38:41.517Z,39.31
2024-03-30T11:39:37.719Z,39.28
2024-03-30T11:40:37.689Z,39.26
2024-03-30T11:41:37.855Z,39.25
2024-03-30T11:42:37.749Z,39.17
2024-03-30T11:43:38.108Z,39.14
2024-03-30T11:44:37.677Z,39.11
2024-03-30T11:45:37.710Z,39.07
2024-03-30T11:46:37.637Z,39.02
2024-03-30T11:47:37.696Z,38.98
2024-03-30T11:48:38.073Z,38.94
2024-03-30T11:49:37.587Z,38.89
2024-03-30T11:50:37.589Z,38.83
2024-03-30T11:51:37.579Z,38.77
2024-03-30T11:52:37.649Z,38.70
2024-03-30T11:53:37.533Z,38.63
2024-03-30T11:54:37.984Z,38.58
2024-03-30T11:55:37.526Z,38.53
2024-03-30T11:56:37.537Z,38.51
2024-03-30T11:57:37.518Z,38.51
2024-03-30T11:58:38.906Z,38.55
2024-03-30T11:59:37.459Z,38.59
2024-03-30T12:00:37.830Z,38.60
2024-03-30T12:01:37.427Z,38.60
2024-03-30T12:02:37.417Z,38.59
2024-03-30T12:03:37.458Z,38.60
2024-03-30T12:04:37.455Z,38.54
2024-03-30T12:05:37.901Z,38.45
2024-03-30T12:06:37.383Z,38.44
2024-03-30T12:07:37.351Z,38.43
2024-03-30T12:08:37.330Z,38.44
2024-03-30T12:09:37.369Z,38.40
2024-03-30T12:10:37.769Z,38.41
2024-03-30T12:11:37.317Z,38.42
2024-03-30T12:12:37.355Z,38.42
2024-03-30T12:13:37.310Z,38.42
2024-03-30T12:14:37.389Z,38.42
2024-03-30T12:15:37.692Z,38.42
2024-03-30T12:16:37.268Z,38.42
2024-03-30T12:17:37.292Z,38.43
2024-03-30T12:18:37.252Z,38.40
2024-03-30T12:19:37.272Z,38.36
2024-03-30T12:20:37.728Z,38.33
2024-03-30T12:21:37.168Z,38.34
2024-03-30T12:22:37.190Z,38.36
2024-03-30T12:23:37.162Z,38.40
2024-03-30T12:24:37.146Z,38.41
2024-03-30T12:25:37.173Z,38.41
2024-03-30T12:26:37.726Z,38.41
2024-03-30T12:27:37.109Z,38.43
2024-03-30T12:28:37.113Z,38.45
2024-03-30T12:29:40.550Z,38.45
2024-03-30T12:30:37.267Z,38.47
2024-03-30T12:31:37.207Z,38.44
2024-03-30T12:32:37.467Z,38.44
2024-03-30T12:33:37.105Z,38.44
2024-03-30T12:34:37.063Z,38.41
2024-03-30T12:35:37.050Z,38.36
2024-03-30T12:36:37.059Z,38.32
2024-03-30T12:37:37.420Z,38.34
2024-03-30T12:38:37.000Z,38.41
2024-03-30T12:39:36.973Z,38.44
2024-03-30T12:40:36.964Z,38.49
2024-03-30T12:41:36.972Z,38.52
2024-03-30T12:42:37.381Z,38.52
2024-03-30T12:43:36.994Z,38.53
2024-03-30T12:44:36.878Z,38.47
2024-03-30T12:45:36.958Z,38.42
2024-03-30T12:46:36.888Z,38.41
2024-03-30T12:47:37.354Z,38.40
2024-03-30T12:48:36.855Z,38.39
2024-03-30T12:49:36.882Z,38.35
2024-03-30T12:50:36.816Z,38.33
2024-03-30T12:51:36.818Z,38.29
2024-03-30T12:52:37.183Z,38.23
2024-03-30T12:53:36.773Z,38.14
2024-03-30T12:54:36.833Z,38.11